createdAt,value
2023-01-26T00:02:18.609Z,86.40
2023-01-26T00:04:48.224Z,85.86
2023-01-26T00:07:16.808Z,85.46
2023-01-26T00:09:44.785Z,83.95
2023-01-26T00:12:12.858Z,86.64
2023-01-26T00:14:51.416Z,85.34
2023-01-26T00:17:26.231Z,85.02
2023-01-26T00:19:55.560Z,83.83
2023-01-26T00:22:23.865Z,84.62
2023-01-26T00:24:52.568Z,82.56
2023-01-26T00:27:20.683Z,84.47
2023-01-26T00:29:52.771Z,86.54
2023-01-26T00:32:20.758Z,87.19
2023-01-26T00:34:49.311Z,87.06
2023-01-26T00:37:17.402Z,87.01
2023-01-26T00:39:45.478Z,85.06
2023-01-26T00:42:14.030Z,84.96
2023-01-26T00:44:43.032Z,85.25
2023-01-26T00:47:13.353Z,85.15
2023-01-26T00:49:41.890Z,83.27
2023-01-26T00:52:11.272Z,85.47
2023-01-26T00:54:39.329Z,83.25
2023-01-26T00:57:07.484Z,83.53
2023-01-26T00:59:36.072Z,82.84
2023-01-26T01:02:04.373Z,83.89
2023-01-26T01:04:34.028Z,85.62
2023-01-26T01:07:02.694Z,85.84
2023-01-26T01:09:30.728Z,85.00
2023-01-26T01:11:58.701Z,84.56
2023-01-26T01:14:26.764Z,85.61
2023-01-26T01:16:54.816Z,86.53
2023-01-26T01:19:22.799Z,87.25
2023-01-26T01:21:55.184Z,89.92
2023-01-26T01:24:23.268Z,93.45
2023-01-26T01:26:51.402Z,91.82
2023-01-26T01:29:19.918Z,92.64
2023-01-26T01:31:48.098Z,94.42
2023-01-26T01:34:16.165Z,95.31
2023-01-26T01:36:44.625Z,98.83
2023-01-26T01:39:13.982Z,99.47
2023-01-26T01:41:42.006Z,98.29
2023-01-26T01:44:17.968Z,96.34
2023-01-26T01:46:51.419Z,95.74
2023-01-26T01:49:21.538Z,93.82
2023-01-26T01:51:52.162Z,92.67
2023-01-26T01:54:23.301Z,92.31
2023-01-26T01:56:52.879Z,91.34
2023-01-26T01:59:22.531Z,89.84
2023-01-26T02:01:51.343Z,89.33
2023-01-26T02:04:19.363Z,87.82
2023-01-26T02:06:48.871Z,87.79
2023-01-26T02:09:31.080Z,88.28
2023-01-26T02:12:00.690Z,86.44
2023-01-26T02:14:29.337Z,87.26
2023-01-26T02:17:00.140Z,86.98
2023-01-26T02:19:30.505Z,85.81
2023-01-26T02:21:58.584Z,84.99
2023-01-26T02:24:27.699Z,83.72
2023-01-26T02:26:57.313Z,83.27
2023-01-26T02:29:25.775Z,81.82
2023-01-26T02:31:54.253Z,81.73
2023-01-26T02:34:24.207Z,80.67
2023-01-26T02:36:58.354Z,80.37
2023-01-26T02:39:31.232Z,81.16
2023-01-26T02:42:18.685Z,80.79
2023-01-26T02:44:46.657Z,80.63
2023-01-26T02:47:15.009Z,79.95
2023-01-26T02:49:47.824Z,80.19
2023-01-26T02:52:15.872Z,80.22
2023-01-26T02:55:12.861Z,79.07
2023-01-26T02:57:42.850Z,77.81
2023-01-26T03:00:12.097Z,77.25
2023-01-26T03:02:40.762Z,77.68
2023-01-26T03:05:09.017Z,77.69
2023-01-26T03:07:37.075Z,77.39
2023-01-26T03:10:05.726Z,77.93
2023-01-26T03:12:33.862Z,77.86
2023-01-26T03:15:21.039Z,77.92
2023-01-26T03:17:49.142Z,79.23
2023-01-26T03:20:35.419Z,78.93
2023-01-26T03:23:20.924Z,79.74
2023-01-26T03:26:12.827Z,79.14
2023-01-26T03:28:40.877Z,80.63
2023-01-26T03:31:12.914Z,80.38
2023-01-26T03:33:40.979Z,80.80
2023-01-26T03:36:09.639Z,81.41
2023-01-26T03:38:37.619Z,82.70
2023-01-26T03:41:23.329Z,82.63
2023-01-26T03:44:08.761Z,83.59
2023-01-26T03:46:55.719Z,83.93
2023-01-26T03:49:40.919Z,84.21
2023-01-26T03:52:26.717Z,84.89
2023-01-26T03:55:12.173Z,84.81
2023-01-26T03:57:40.211Z,86.08
2023-01-26T04:00:10.102Z,86.94
2023-01-26T04:02:57.330Z,85.64
2023-01-26T04:05:43.235Z,89.58
2023-01-26T04:08:23.997Z,94.14
2023-01-26T04:10:52.487Z,96.02
2023-01-26T04:13:38.656Z,96.44
2023-01-26T04:16:24.999Z,96.32
2023-01-26T04:19:12.103Z,98.30
2023-01-26T04:21:40.164Z,99.58
2023-01-26T04:24:09.785Z,100.00
2023-01-26T04:26:38.357Z,100.00
2023-01-26T04:29:07.547Z,100.00
2023-01-26T04:31:35.656Z,100.00
2023-01-26T04:34:07.829Z,100.00
2023-01-26T04:36:35.933Z,100.00
2023-01-26T04:39:04.294Z,100.00
2023-01-26T04:41:32.348Z,100.00
2023-01-26T04:44:00.918Z,100.00
2023-01-26T04:46:28.999Z,100.00
2023-01-26T04:48:56.992Z,100.00
2023-01-26T04:51:28.226Z,100.00
2023-01-26T04:53:56.240Z,100.00
2023-01-26T04:56:25.623Z,100.00
2023-01-26T04:58:53.857Z,100.00
2023-01-26T05:01:21.935Z,100.00
2023-01-26T05:03:50.027Z,100.00
2023-01-26T05:06:19.564Z,100.00
2023-01-26T05:08:53.833Z,100.00
2023-01-26T05:11:21.852Z,100.00
2023-01-26T05:13:50.346Z,100.00
2023-01-26T05:16:19.047Z,100.00
2023-01-26T05:18:47.137Z,100.00
2023-01-26T05:21:15.143Z,100.00
2023-01-26T05:23:43.257Z,100.00
2023-01-26T05:26:13.027Z,98.78
2023-01-26T05:28:41.022Z,99.00
2023-01-26T05:31:09.067Z,96.99
2023-01-26T05:33:37.160Z,98.60
2023-01-26T05:36:06.188Z,97.75
2023-01-26T05:38:34.363Z,95.55
2023-01-26T05:41:02.354Z,95.70
2023-01-26T05:43:32.216Z,94.10
2023-01-26T05:46:00.278Z,92.12
2023-01-26T05:48:31.330Z,91.47
2023-01-26T05:51:03.038Z,90.23
2023-01-26T05:53:36.811Z,89.84
2023-01-26T05:56:05.043Z,88.53
2023-01-26T05:58:34.577Z,85.28
2023-01-26T06:01:05.757Z,85.40
2023-01-26T06:03:36.851Z,83.98
2023-01-26T06:06:05.228Z,82.31
2023-01-26T06:08:34.479Z,82.59
2023-01-26T06:11:02.552Z,80.35
2023-01-26T06:13:31.079Z,78.93
2023-01-26T06:16:03.135Z,75.79
2023-01-26T06:18:32.290Z,74.34
2023-01-26T06:21:00.732Z,73.13
2023-01-26T06:23:28.797Z,71.19
2023-01-26T06:26:00.098Z,71.09
2023-01-26T06:28:28.401Z,70.33
2023-01-26T06:31:03.917Z,70.51
2023-01-26T06:33:34.387Z,69.05
2023-01-26T06:36:04.665Z,69.21
2023-01-26T06:38:34.386Z,68.88
2023-01-26T06:41:03.258Z,68.60
2023-01-26T06:43:32.572Z,68.59
2023-01-26T06:46:02.845Z,68.05
2023-01-26T06:48:31.860Z,66.99
2023-01-26T06:51:05.015Z,66.50
2023-01-26T06:53:35.148Z,64.62
2023-01-26T06:56:03.237Z,64.13
2023-01-26T06:58:31.385Z,64.11
2023-01-26T07:00:59.902Z,63.79
2023-01-26T07:03:29.359Z,64.06
2023-01-26T07:05:57.385Z,64.05
2023-01-26T07:08:25.593Z,63.58
2023-01-26T07:10:53.656Z,63.56
2023-01-26T07:13:21.747Z,64.71
2023-01-26T07:15:49.961Z,65.28
2023-01-26T07:18:18.719Z,65.15
2023-01-26T07:20:48.666Z,65.63
2023-01-26T07:23:16.811Z,65.46
2023-01-26T07:25:45.557Z,65.73
2023-01-26T07:28:13.711Z,66.70
2023-01-26T07:30:41.757Z,67.91
2023-01-26T07:33:09.814Z,67.66
2023-01-26T07:35:38.213Z,68.48
2023-01-26T07:38:07.798Z,68.70
2023-01-26T07:40:35.773Z,69.24
2023-01-26T07:43:04.035Z,71.51
2023-01-26T07:45:34.920Z,71.12
2023-01-26T07:48:03.162Z,72.61
2023-01-26T07:50:32.397Z,72.85
2023-01-26T07:53:01.620Z,74.60
2023-01-26T07:55:31.089Z,75.35
2023-01-26T07:57:59.586Z,76.64
2023-01-26T08:00:28.183Z,77.85
2023-01-26T08:02:56.558Z,78.31
2023-01-26T08:05:24.643Z,78.80
2023-01-26T08:07:52.861Z,76.47
2023-01-26T08:10:21.027Z,75.80
2023-01-26T08:12:50.579Z,75.89
2023-01-26T08:15:19.061Z,76.78
2023-01-26T08:17:47.180Z,75.83
2023-01-26T08:20:15.250Z,74.91
2023-01-26T08:22:46.245Z,75.27
2023-01-26T08:25:14.707Z,75.24
2023-01-26T08:27:42.762Z,76.37
2023-01-26T08:30:15.129Z,75.16
2023-01-26T08:32:43.956Z,75.40
2023-01-26T08:35:12.356Z,75.07
2023-01-26T08:37:41.339Z,75.57
2023-01-26T08:40:11.129Z,74.58
2023-01-26T08:42:39.375Z,76.60
2023-01-26T08:45:09.877Z,79.20
2023-01-26T08:47:39.330Z,79.96
2023-01-26T08:50:08.203Z,80.29
2023-01-26T08:52:36.264Z,81.90
2023-01-26T08:55:04.704Z,82.26
2023-01-26T08:57:32.844Z,83.47
2023-01-26T09:00:01.550Z,83.81
2023-01-26T09:02:29.989Z,83.58
2023-01-26T09:04:59.474Z,84.48
2023-01-26T09:07:27.702Z,82.84
2023-01-26T09:09:56.092Z,81.34
2023-01-26T09:12:24.222Z,82.17
2023-01-26T09:14:52.252Z,79.31
2023-01-26T09:17:20.348Z,80.01
2023-01-26T09:19:49.017Z,79.06
2023-01-26T09:22:18.852Z,79.52
2023-01-26T09:24:46.890Z,79.52
2023-01-26T09:27:15.231Z,78.88
2023-01-26T09:29:43.772Z,77.77
2023-01-26T09:32:11.749Z,75.57
2023-01-26T09:34:39.729Z,74.93
2023-01-26T09:37:08.279Z,74.07
2023-01-26T09:39:38.468Z,75.15
2023-01-26T09:42:19.792Z,76.79
2023-01-26T09:44:51.055Z,76.16
2023-01-26T09:47:21.234Z,76.16
2023-01-26T09:49:50.078Z,77.01
2023-01-26T09:52:25.230Z,77.54
2023-01-26T09:54:56.786Z,79.52
2023-01-26T09:57:28.377Z,77.82
2023-01-26T09:59:58.508Z,77.32
2023-01-26T10:02:43.212Z,78.00
2023-01-26T10:05:15.970Z,77.27
2023-01-26T10:07:45.352Z,76.27
2023-01-26T10:10:20.636Z,77.64
2023-01-26T10:12:49.121Z,77.14
2023-01-26T10:15:22.871Z,78.40
2023-01-26T10:17:50.945Z,80.82
2023-01-26T10:20:25.281Z,80.08
2023-01-26T10:22:54.817Z,81.27
2023-01-26T10:25:30.059Z,81.75
2023-01-26T10:27:58.119Z,80.40
2023-01-26T10:30:26.139Z,83.44
2023-01-26T10:32:54.763Z,82.68
2023-01-26T10:35:24.687Z,84.29
2023-01-26T10:37:54.271Z,85.07
2023-01-26T10:40:22.417Z,87.48
2023-01-26T10:42:59.196Z,89.98
2023-01-26T10:45:29.569Z,88.06
2023-01-26T10:48:07.962Z,87.46
2023-01-26T10:50:36.456Z,87.62
2023-01-26T10:53:05.541Z,85.20
2023-01-26T10:55:36.481Z,85.41
2023-01-26T10:58:05.960Z,85.97
2023-01-26T11:00:37.477Z,84.56
2023-01-26T11:03:19.347Z,85.49
2023-01-26T11:05:48.252Z,85.62
2023-01-26T11:08:33.792Z,85.57
2023-01-26T11:11:01.876Z,85.21
2023-01-26T11:13:34.911Z,83.36
2023-01-26T11:16:04.809Z,82.49
2023-01-26T11:18:43.217Z,81.70
2023-01-26T11:21:12.929Z,82.36
2023-01-26T11:23:59.686Z,82.67
2023-01-26T11:27:13.220Z,81.44
2023-01-26T11:30:06.834Z,80.20
2023-01-26T11:32:39.472Z,79.60
2023-01-26T11:35:14.976Z,79.47
2023-01-26T11:37:45.839Z,78.45
2023-01-26T11:40:25.385Z,77.55
2023-01-26T11:43:08.631Z,77.45
2023-01-26T11:45:41.755Z,76.86
2023-01-26T11:48:16.353Z,75.12
2023-01-26T11:50:47.252Z,73.08
2023-01-26T11:53:32.727Z,72.04
2023-01-26T11:56:09.268Z,70.99
2023-01-26T11:58:39.492Z,71.83
2023-01-26T12:01:11.515Z,69.66
2023-01-26T12:03:44.979Z,70.78
2023-01-26T12:06:18.932Z,69.35
2023-01-26T12:08:49.565Z,71.94
2023-01-26T12:11:23.976Z,70.31
2023-01-26T12:13:58.076Z,69.16
2023-01-26T12:16:32.079Z,69.78
2023-01-26T12:19:11.166Z,68.72
2023-01-26T12:21:40.241Z,68.06
2023-01-26T12:24:30.502Z,68.84
2023-01-26T12:26:58.616Z,67.04
2023-01-26T12:29:27.480Z,66.77
2023-01-26T12:31:58.973Z,66.34
2023-01-26T12:34:28.862Z,67.88
2023-01-26T12:37:06.358Z,67.79
2023-01-26T12:39:38.523Z,67.74
2023-01-26T12:42:26.607Z,68.88
2023-01-26T12:44:55.565Z,68.83
2023-01-26T12:47:28.272Z,67.67
2023-01-26T12:49:59.122Z,67.60
2023-01-26T12:52:30.781Z,66.84
2023-01-26T12:55:01.040Z,67.07
2023-01-26T12:57:34.012Z,66.53
2023-01-26T13:00:06.481Z,66.87
2023-01-26T13:02:36.425Z,67.70
2023-01-26T13:05:05.348Z,67.85
2023-01-26T13:07:37.575Z,67.20
2023-01-26T13:10:24.559Z,68.44
2023-01-26T13:12:54.507Z,68.09
2023-01-26T13:15:25.828Z,69.28
2023-01-26T13:17:59.628Z,71.28
2023-01-26T13:20:51.555Z,71.85
2023-01-26T13:23:39.876Z,72.44
2023-01-26T13:26:18.127Z,72.91
2023-01-26T13:28:48.459Z,73.77
2023-01-26T13:31:30.627Z,76.22
2023-01-26T13:34:02.242Z,76.18
2023-01-26T13:36:31.750Z,77.25
2023-01-26T13:39:02.254Z,77.83
2023-01-26T13:41:30.440Z,78.99
2023-01-26T13:44:00.774Z,80.77
2023-01-26T13:46:31.938Z,81.02
2023-01-26T13:49:01.701Z,80.89
2023-01-26T13:51:31.071Z,80.67
2023-01-26T13:54:01.962Z,82.21
2023-01-26T13:56:31.766Z,79.95
2023-01-26T13:59:11.903Z,79.48
2023-01-26T14:01:44.227Z,75.38
2023-01-26T14:04:17.288Z,72.66
2023-01-26T14:06:49.958Z,71.43
2023-01-26T14:09:18.351Z,70.13
2023-01-26T14:11:46.486Z,69.23
2023-01-26T14:14:21.562Z,66.48
2023-01-26T14:16:49.811Z,65.97
2023-01-26T14:19:22.011Z,63.82
2023-01-26T14:21:51.518Z,63.63
2023-01-26T14:24:21.064Z,61.72
2023-01-26T14:26:53.906Z,60.87
2023-01-26T14:29:23.210Z,60.27
2023-01-26T14:31:52.277Z,59.19
2023-01-26T14:34:23.302Z,58.49
2023-01-26T14:37:06.355Z,58.61
2023-01-26T14:39:37.098Z,57.83
2023-01-26T14:42:07.325Z,57.25
2023-01-26T14:44:35.972Z,56.74
2023-01-26T14:47:06.042Z,55.61
2023-01-26T14:49:43.207Z,55.70
2023-01-26T14:52:18.589Z,55.51
2023-01-26T14:54:47.149Z,54.37
2023-01-26T14:57:18.049Z,53.29
2023-01-26T14:59:48.779Z,53.50
2023-01-26T15:02:17.678Z,52.13
2023-01-26T15:04:49.775Z,51.24
2023-01-26T15:07:37.802Z,50.12
2023-01-26T15:10:21.844Z,49.23
2023-01-26T15:12:58.067Z,48.22
2023-01-26T15:15:28.613Z,47.04
2023-01-26T15:18:17.420Z,44.58
2023-01-26T15:20:49.554Z,43.35
2023-01-26T15:23:26.313Z,41.97
2023-01-26T15:25:54.399Z,40.06
2023-01-26T15:28:25.931Z,38.62
2023-01-26T15:30:56.037Z,37.93
2023-01-26T15:33:55.095Z,35.17
2023-01-26T15:36:35.141Z,33.36
2023-01-26T15:39:13.400Z,32.13
2023-01-26T15:41:41.447Z,30.05
2023-01-26T15:44:17.475Z,28.81
2023-01-26T15:46:45.764Z,26.53
2023-01-26T15:49:16.723Z,25.91
2023-01-26T15:51:46.113Z,23.69
2023-01-26T15:54:14.400Z,19.10
2023-01-26T15:56:43.150Z,18.51
2023-01-26T15:59:11.339Z,18.00
2023-01-26T16:01:39.316Z,17.05
2023-01-26T16:04:07.777Z,15.82
2023-01-26T16:06:35.858Z,14.15
2023-01-26T16:09:07.662Z,13.89
2023-01-26T16:11:37.452Z,13.04
2023-01-26T16:14:05.503Z,12.48
2023-01-26T16:16:36.204Z,11.63
2023-01-26T16:19:04.344Z,10.35
2023-01-26T16:21:35.043Z,10.42
2023-01-26T16:24:04.848Z,8.33
2023-01-26T16:26:33.547Z,7.65
2023-01-26T16:29:01.656Z,6.91
2023-01-26T16:31:31.170Z,6.12
2023-01-26T16:33:59.408Z,6.20
2023-01-26T16:36:27.548Z,5.81
2023-01-26T16:38:56.292Z,3.64
2023-01-26T16:41:26.894Z,5.15
2023-01-26T16:43:55.447Z,5.16
2023-01-26T16:46:23.970Z,4.16
2023-01-26T16:48:53.745Z,3.53
2023-01-26T16:51:23.834Z,3.94
2023-01-26T16:53:52.026Z,3.21
2023-01-26T16:56:20.244Z,3.10
2023-01-26T16:58:49.739Z,2.73
2023-01-26T17:01:22.348Z,1.39
2023-01-26T17:03:50.447Z,1.88
2023-01-26T17:06:18.789Z,1.07
2023-01-26T17:08:47.403Z,0.01
2023-01-26T17:11:19.073Z,0.00
2023-01-26T17:13:49.105Z,0.56
2023-01-26T17:16:20.575Z,1.90
2023-01-26T17:18:50.631Z,0.60
2023-01-26T17:21:21.603Z,0.50
2023-01-26T17:23:50.426Z,1.43
2023-01-26T17:26:18.681Z,1.34
2023-01-26T17:28:46.851Z,0.77
2023-01-26T17:31:17.889Z,1.99
2023-01-26T17:33:46.219Z,1.61
2023-01-26T17:36:14.445Z,1.21
2023-01-26T17:38:42.883Z,0.00
2023-01-26T17:41:11.017Z,0.00
2023-01-26T17:43:40.627Z,0.00
2023-01-26T17:46:11.968Z,0.00
2023-01-26T17:48:42.994Z,0.00
2023-01-26T17:51:12.984Z,0.00
2023-01-26T17:53:42.233Z,0.00
2023-01-26T17:56:10.720Z,0.00
2023-01-26T17:58:38.875Z,0.00
2023-01-26T18:01:07.748Z,0.00
2023-01-26T18:03:36.059Z,0.00
2023-01-26T18:06:09.010Z,0.00
2023-01-26T18:08:38.230Z,0.00
2023-01-26T18:11:07.627Z,0.00
2023-01-26T18:13:35.740Z,0.00
2023-01-26T18:16:06.819Z,0.00
2023-01-26T18:18:34.933Z,0.00
2023-01-26T18:21:13.813Z,0.00
2023-01-26T18:23:44.239Z,0.00
2023-01-26T18:26:12.315Z,0.00
2023-01-26T18:28:40.916Z,0.00
2023-01-26T18:31:10.868Z,0.00
2023-01-26T18:33:39.121Z,0.00
2023-01-26T18:36:09.560Z,0.00
2023-01-26T18:38:39.489Z,0.46
2023-01-26T18:41:11.222Z,1.31
2023-01-26T18:43:39.416Z,0.00
2023-01-26T18:46:07.529Z,3.18
2023-01-26T18:48:36.777Z,0.00
2023-01-26T18:51:05.712Z,0.00
2023-01-26T18:53:33.783Z,5.12
2023-01-26T18:56:06.922Z,5.51
2023-01-26T18:58:35.038Z,5.63
2023-01-26T19:01:09.875Z,5.40
2023-01-26T19:03:38.590Z,6.54
2023-01-26T19:06:06.896Z,6.88
2023-01-26T19:08:37.559Z,6.97
2023-01-26T19:11:07.318Z,7.99
2023-01-26T19:13:35.833Z,8.12
2023-01-26T19:16:03.976Z,8.79
2023-01-26T19:18:32.046Z,9.61
2023-01-26T19:21:00.909Z,8.53
2023-01-26T19:23:29.032Z,9.43
2023-01-26T19:25:57.126Z,9.60
2023-01-26T19:28:26.731Z,9.64
2023-01-26T19:31:19.198Z,9.88
2023-01-26T19:33:57.328Z,9.75
2023-01-26T19:36:25.837Z,10.03
2023-01-26T19:38:53.861Z,10.67
2023-01-26T19:41:21.975Z,11.81
2023-01-26T19:43:51.921Z,11.63
2023-01-26T19:46:20.116Z,10.97
2023-01-26T19:48:48.333Z,11.82
2023-01-26T19:51:17.591Z,11.88
2023-01-26T19:53:46.987Z,12.61
2023-01-26T19:56:16.396Z,11.67
2023-01-26T19:58:44.700Z,12.18
2023-01-26T20:01:16.579Z,11.92
2023-01-26T20:03:44.710Z,11.21
2023-01-26T20:06:15.292Z,11.43
2023-01-26T20:08:43.788Z,10.71
2023-01-26T20:11:11.786Z,11.57
2023-01-26T20:13:39.937Z,11.15
2023-01-26T20:16:08.935Z,11.50
2023-01-26T20:18:38.519Z,10.92
2023-01-26T20:21:07.725Z,10.73
2023-01-26T20:23:36.684Z,10.15
2023-01-26T20:26:06.033Z,11.16
2023-01-26T20:28:34.273Z,11.94
2023-01-26T20:31:07.004Z,9.77
2023-01-26T20:33:35.120Z,9.68
2023-01-26T20:36:08.084Z,10.97
2023-01-26T20:38:36.609Z,11.48
2023-01-26T20:41:08.162Z,11.09
2023-01-26T20:43:39.210Z,10.95
2023-01-26T20:46:08.297Z,11.33
2023-01-26T20:48:36.483Z,8.54
2023-01-26T20:51:11.996Z,4.75
2023-01-26T20:53:40.148Z,4.98
2023-01-26T20:56:09.210Z,5.20
2023-01-26T20:58:37.259Z,4.97
2023-01-26T21:01:06.444Z,5.55
2023-01-26T21:03:34.991Z,4.38
2023-01-26T21:06:03.085Z,5.48
2023-01-26T21:08:32.671Z,3.59
2023-01-26T21:11:02.545Z,4.96
2023-01-26T21:13:30.631Z,4.55
2023-01-26T21:15:58.710Z,5.01
2023-01-26T21:18:26.739Z,4.93
2023-01-26T21:20:57.776Z,4.24
2023-01-26T21:23:25.932Z,4.42
2023-01-26T21:25:59.810Z,3.51
2023-01-26T21:28:27.895Z,3.28
2023-01-26T21:31:02.803Z,3.33
2023-01-26T21:33:30.861Z,2.85
2023-01-26T21:35:58.975Z,2.95
2023-01-26T21:38:27.173Z,2.64
2023-01-26T21:41:03.244Z,2.83
2023-01-26T21:43:31.396Z,2.53
2023-01-26T21:45:59.508Z,2.48
2023-01-26T21:48:35.784Z,2.30
2023-01-26T21:51:21.241Z,2.56
2023-01-26T21:53:51.179Z,2.09
2023-01-26T21:56:21.102Z,1.75
2023-01-26T21:58:54.213Z,1.81
2023-01-26T22:01:22.400Z,1.84
2023-01-26T22:03:51.861Z,0.88
2023-01-26T22:06:20.178Z,1.16
2023-01-26T22:08:48.167Z,1.27
2023-01-26T22:11:16.210Z,0.79
2023-01-26T22:13:45.628Z,0.78
2023-01-26T22:16:27.398Z,1.87
2023-01-26T22:18:55.673Z,0.96
2023-01-26T22:21:24.189Z,1.22
2023-01-26T22:23:52.491Z,0.55
2023-01-26T22:26:22.023Z,0.84
2023-01-26T22:28:54.686Z,1.02
2023-01-26T22:31:23.756Z,1.18
2023-01-26T22:33:54.415Z,0.14
2023-01-26T22:36:22.610Z,0.14
2023-01-26T22:38:50.999Z,1.05
2023-01-26T22:41:20.358Z,0.53
2023-01-26T22:43:49.165Z,0.55
2023-01-26T22:46:19.144Z,0.82
2023-01-26T22:48:47.241Z,1.29
2023-01-26T22:51:18.071Z,1.46
2023-01-26T22:53:46.796Z,1.93
2023-01-26T22:56:14.906Z,1.70
2023-01-26T22:58:57.127Z,1.28
2023-01-26T23:01:28.008Z,2.09
2023-01-26T23:03:56.315Z,2.07
2023-01-26T23:06:24.449Z,2.71
2023-01-26T23:08:52.574Z,2.37
2023-01-26T23:11:21.764Z,3.17
2023-01-26T23:13:50.708Z,2.88
2023-01-26T23:16:18.826Z,3.62
2023-01-26T23:18:48.313Z,3.86
2023-01-26T23:21:16.377Z,4.63
2023-01-26T23:23:45.200Z,5.27
2023-01-26T23:26:13.231Z,5.72
2023-01-26T23:28:42.300Z,6.25
2023-01-26T23:31:10.918Z,6.20
2023-01-26T23:33:39.110Z,6.69
2023-01-26T23:36:09.817Z,7.19
2023-01-26T23:38:37.887Z,6.95
2023-01-26T23:41:06.544Z,7.20
2023-01-26T23:43:34.599Z,8.09
2023-01-26T23:46:02.902Z,8.56
2023-01-26T23:48:30.906Z,9.06
2023-01-26T23:50:58.978Z,9.64
2023-01-26T23:53:28.466Z,9.70
2023-01-26T23:55:58.275Z,9.85
2023-01-26T23:58:26.728Z,9.71
